Sudbury Airport
CYSB : now visible

Airfield :











YOU CAN JOIN US ON...

 
LOGIN :

Register | Disclaimer

   EN    FR    IT 

 









Legend :    VFR   Marginal VFR   IFR   Intensive IFR   Very Intensive IFR
Visi :
Ceiling :
>= 8 km
>= 3000ft
5 to 8 km
1000 to 3000 ft
1500m to 5 km
500 to 1000 ft
800 to 1500m
200 to 500 ft
< 800m
< 200 ft
Symbols :   Thunderstorms  Fog  Heavy snow  Heavy precipitations  Wind > 20 kt






- Airport Elevation : 1141 ft
- IATA code : YSB


CYSB - Sudbury

CURRENT METAR :
  • 170900Z 34010G19KT 15SM FEW015 OVC070 M07/M10 A2944 RMK SC2AC6 SLP989

EXPIRED METARs :
  • 170845Z 33015G20KT 15SM FEW015 SCT035 OVC070 M07/M10 A2944 RMK SC2SC1AC5 SLP988
  • 170800Z 34010G15KT 10SM -SN OVC035 M06/M09 A2943 RMK SC8 SLP984
  • 170700Z 34011KT 8SM -SN OVC030 M06/M08 A2941 RMK SC8 SLP978

TAF TAF CYSB
Valid from the 17 at 08:00 until the 17 at 20:00 UTC


170738Z 1708/1720 35012G22KT P6SM OVC025
TEMPO 1708/1712 5SM -SN BKN008 OVC020
FM171200 35012G22KT P6SM OVC025
TEMPO 1712/1718 OVC020
FM171800 35012G22KT P6SM OVC025 RMK NXT FCST BY 171400Z
CZYZ FIR / North America



MET'MAP, your aeronautical weather chart ! - Copyright ORBIFLY December 2007 - Disclaimer

ORBIFLY MET'MAP TEAM :

Programming & Development : Alexandra Zaïnal
Concept & original design : Baudouin d'Aumeries
Assistance for programming : Marc-Olivier Méhu
Technical & hardware support : Manuel Goepfert

Contact : metmap@orbifly.com




SOURCES & CREDITS :

   NOAA       Earth
Advisory